Terminal Aerodrome Forecast
Issued by NWS

Home | Current Version | Previous Version | Text Only | Print | Product List | Glossary On
Versions: 1 2 3 4 5 6 7 8 9 10 11 12 13
000
FTUS44 KOUN 071140
TAFCSM
TAF
KCSM 071140Z 0712/0812 06003KT P6SM SCT040 OVC100
     FM072000 02019G26KT P6SM BKN025
     FM080400 36011KT P6SM SCT025 BKN250=

USA.gov is the U.S. government's official web portal to all federal, state and local government web resources and services.